Lake Park, Iowa
Current Conditions -  °F | °C
As of 6:15 AM on Friday 24 Oct 2014 (Local Time) from KOTG Reporting Station
Clear Clear  
Wind Chill: 52°   Ceiling: Unl
Heat Index: 52°   Visibility: 10mi
Dew Point: 48°   Wind: 9mph
Humidity: 88%   Direction: 190°S
Pressure: 29.86"   Gusts: NA
Location:  43.46°N, 95.32°W
Report Text: KOTG 241115Z AUTO 19008KT 10SM CLR 11/09 A2986 RMK AO1
Loading
Personal Weather Stations






























Interactive Weather Map
Tropical Storm Tracking
New forecast layout! Learn more

10-Day Weather Forecast

Advertisements
Track Severe Weather on mobile